createdAt,value
2019-04-07T00:01:40.038Z,15.63
2019-04-07T00:06:41.804Z,16.67
2019-04-07T00:11:44.104Z,15.77
2019-04-07T00:16:45.877Z,16.07
2019-04-07T00:21:47.945Z,15.83
2019-04-07T00:26:49.733Z,14.97
2019-04-07T00:31:51.567Z,14.93
2019-04-07T00:36:53.645Z,15.20
2019-04-07T00:41:56.527Z,16.20
2019-04-07T00:46:58.640Z,15.93
2019-04-07T00:52:01.485Z,16.10
2019-04-07T00:57:03.225Z,16.77
2019-04-07T01:02:05.790Z,15.80
2019-04-07T01:07:08.122Z,16.17
2019-04-07T01:12:10.318Z,16.63
2019-04-07T01:17:12.606Z,16.07
2019-04-07T01:22:14.541Z,15.70
2019-04-07T01:27:16.278Z,16.40
2019-04-07T01:32:18.101Z,14.13
2019-04-07T01:37:19.825Z,16.10
2019-04-07T01:42:30.174Z,16.03
2019-04-07T01:47:50.808Z,15.97
2019-04-07T01:53:01.109Z,15.13
2019-04-07T01:58:20.239Z,15.17
2019-04-07T02:03:44.105Z,14.83
2019-04-07T02:08:55.766Z,14.47
2019-04-07T02:14:17.095Z,15.20
2019-04-07T02:19:26.248Z,14.63
2019-04-07T02:24:46.326Z,14.93
2019-04-07T02:30:06.206Z,14.20
2019-04-07T02:35:46.573Z,15.33
2019-04-07T02:41:06.514Z,14.17
2019-04-07T02:46:44.010Z,15.00
2019-04-07T02:52:09.096Z,14.90
2019-04-07T02:57:26.848Z,14.37
2019-04-07T03:02:39.211Z,13.90
2019-04-07T03:07:50.456Z,14.43
2019-04-07T03:13:10.363Z,13.97
2019-04-07T03:18:27.717Z,14.20
2019-04-07T03:23:38.295Z,13.70
2019-04-07T03:29:11.897Z,14.63
2019-04-07T03:34:29.027Z,14.50
2019-04-07T03:39:49.323Z,14.53
2019-04-07T03:45:04.144Z,14.90
2019-04-07T03:50:17.095Z,15.03
2019-04-07T03:55:41.306Z,15.17
2019-04-07T04:01:34.270Z,15.60
2019-04-07T04:06:56.678Z,15.10
2019-04-07T04:12:05.024Z,14.80
2019-04-07T04:17:07.021Z,15.70
2019-04-07T04:22:09.163Z,15.73
2019-04-07T04:27:11.079Z,15.63
2019-04-07T04:32:13.435Z,16.07
2019-04-07T04:37:15.439Z,16.20
2019-04-07T04:42:17.175Z,15.03
2019-04-07T04:47:19.179Z,15.83
2019-04-07T04:52:21.953Z,15.43
2019-04-07T04:57:23.730Z,14.90
2019-04-07T05:02:25.769Z,15.70
2019-04-07T05:07:27.610Z,15.80
2019-04-07T05:12:29.402Z,16.20
2019-04-07T05:17:31.170Z,16.00
2019-04-07T05:22:33.282Z,15.97
2019-04-07T05:27:34.981Z,16.17
2019-04-07T05:32:36.913Z,15.97
2019-04-07T05:37:39.354Z,15.47
2019-04-07T05:42:41.302Z,16.87
2019-04-07T05:47:47.793Z,19.30
2019-04-07T05:52:46.635Z,19.07
2019-04-07T05:57:48.515Z,18.30
2019-04-07T06:02:50.790Z,18.03
2019-04-07T06:07:52.750Z,17.97
2019-04-07T06:12:55.323Z,18.13
2019-04-07T06:18:00.600Z,17.27
2019-04-07T06:23:02.044Z,17.30
2019-04-07T06:28:04.247Z,17.33
2019-04-07T06:33:07.279Z,17.70
2019-04-07T06:38:09.243Z,17.87
2019-04-07T06:43:11.113Z,17.10
2019-04-07T06:48:13.349Z,18.07
2019-04-07T06:53:33.813Z,18.60
2019-04-07T06:58:42.888Z,19.10
2019-04-07T07:04:16.769Z,17.93
2019-04-07T07:09:41.696Z,17.37
2019-04-07T07:15:03.244Z,17.63
2019-04-07T07:20:17.647Z,16.60
2019-04-07T07:25:19.497Z,17.27
2019-04-07T07:30:21.439Z,17.33
2019-04-07T07:35:23.476Z,17.37
2019-04-07T07:40:25.425Z,17.50
2019-04-07T07:45:27.406Z,18.93
2019-04-07T07:50:29.921Z,17.50
2019-04-07T07:55:36.521Z,16.47
2019-04-07T08:00:40.009Z,17.00
2019-04-07T08:05:39.092Z,13.97
2019-04-07T08:10:40.822Z,14.13
2019-04-07T08:15:42.662Z,14.57
2019-04-07T08:20:45.167Z,16.90
2019-04-07T08:25:47.583Z,17.63
2019-04-07T08:30:50.185Z,14.73
2019-04-07T08:35:54.218Z,16.33
2019-04-07T08:40:55.637Z,13.50
2019-04-07T08:45:57.957Z,15.07
2019-04-07T08:51:00.831Z,15.27
2019-04-07T08:56:03.480Z,13.87
2019-04-07T09:01:05.424Z,9.40
2019-04-07T09:06:07.315Z,14.10
2019-04-07T09:11:14.656Z,13.30
2019-04-07T09:16:23.667Z,13.67
2019-04-07T09:21:47.536Z,15.67
2019-04-07T09:27:07.923Z,15.13
2019-04-07T09:32:27.817Z,14.17
2019-04-07T09:37:44.521Z,12.83
2019-04-07T09:43:01.278Z,11.77
2019-04-07T09:48:25.282Z,12.23
2019-04-07T09:53:50.706Z,12.13
2019-04-07T09:59:05.412Z,11.43
2019-04-07T10:04:16.190Z,13.47
2019-04-07T10:09:38.515Z,11.63
2019-04-07T10:14:54.255Z,12.17
2019-04-07T10:20:15.552Z,11.97
2019-04-07T10:25:40.315Z,10.00
2019-04-07T10:31:00.450Z,11.17
2019-04-07T10:36:30.817Z,7.43
2019-04-07T10:42:05.302Z,7.17
2019-04-07T10:47:23.491Z,7.77
2019-04-07T10:52:41.230Z,8.20
2019-04-07T10:57:49.462Z,7.90
2019-04-07T11:02:58.121Z,8.30
2019-04-07T11:08:18.274Z,7.70
2019-04-07T11:13:45.834Z,9.20
2019-04-07T11:19:10.037Z,9.43
2019-04-07T11:24:35.112Z,10.00
2019-04-07T11:29:46.709Z,8.77
2019-04-07T11:35:17.094Z,8.40
2019-04-07T11:40:27.977Z,8.67
2019-04-07T11:45:58.313Z,8.93
2019-04-07T11:51:11.265Z,8.73
2019-04-07T11:56:35.264Z,8.07
2019-04-07T12:01:53.464Z,8.53
2019-04-07T12:07:21.983Z,8.80
2019-04-07T12:12:56.004Z,8.10
2019-04-07T12:18:16.795Z,8.83
2019-04-07T12:23:34.003Z,8.37
2019-04-07T12:29:04.258Z,5.80
2019-04-07T12:34:25.525Z,8.13
2019-04-07T12:39:35.368Z,8.50
2019-04-07T12:45:10.049Z,8.50
2019-04-07T12:50:51.110Z,7.27
2019-04-07T12:56:33.356Z,6.70
2019-04-07T13:01:44.550Z,8.10
2019-04-07T13:07:15.131Z,9.63
2019-04-07T13:12:44.178Z,8.53
2019-04-07T13:18:12.126Z,8.13
2019-04-07T13:23:27.490Z,9.10
2019-04-07T13:28:51.941Z,5.53
2019-04-07T13:34:10.830Z,7.93
2019-04-07T13:39:45.933Z,6.77
2019-04-07T13:45:04.316Z,8.07
2019-04-07T13:50:22.494Z,8.57
2019-04-07T13:55:43.918Z,9.43
2019-04-07T14:01:11.521Z,8.13
2019-04-07T14:06:31.126Z,9.50
2019-04-07T14:12:01.931Z,9.60
2019-04-07T14:17:19.668Z,9.90
2019-04-07T14:22:43.402Z,8.17
2019-04-07T14:28:07.823Z,5.27
2019-04-07T14:33:19.795Z,10.53
2019-04-07T14:38:31.290Z,10.27
2019-04-07T14:43:47.513Z,12.37
2019-04-07T14:49:15.899Z,9.17
2019-04-07T14:54:46.708Z,10.93
2019-04-07T15:00:02.146Z,10.03
2019-04-07T15:05:13.719Z,9.70
2019-04-07T15:10:21.763Z,9.50
2019-04-07T15:15:23.714Z,10.53
2019-04-07T15:20:25.450Z,9.57
2019-04-07T15:25:27.718Z,10.47
2019-04-07T15:30:31.123Z,9.30
2019-04-07T15:35:33.107Z,9.20
2019-04-07T15:40:36.210Z,9.00
2019-04-07T15:45:39.773Z,8.53
2019-04-07T15:50:41.933Z,8.97
2019-04-07T15:55:52.963Z,8.80
2019-04-07T16:00:48.579Z,9.17
2019-04-07T16:05:51.244Z,8.40
2019-04-07T16:10:53.672Z,8.83
2019-04-07T16:15:57.257Z,8.70
2019-04-07T16:21:00.694Z,7.73
2019-04-07T16:26:03.310Z,8.27
2019-04-07T16:31:06.522Z,9.13
2019-04-07T16:36:08.730Z,8.63
2019-04-07T16:41:12.301Z,7.57
2019-04-07T16:46:20.130Z,9.13
2019-04-07T16:51:17.908Z,8.37
2019-04-07T16:56:21.877Z,8.70
2019-04-07T17:01:24.595Z,8.53
2019-04-07T17:06:29.808Z,8.67
2019-04-07T17:11:31.139Z,8.93
2019-04-07T17:16:33.437Z,9.33
2019-04-07T17:21:39.349Z,8.63
2019-04-07T17:26:39.338Z,7.97
2019-04-07T17:31:41.434Z,9.23
2019-04-07T17:36:43.185Z,9.17
2019-04-07T17:41:48.337Z,8.23
2019-04-07T17:47:11.615Z,9.40
2019-04-07T17:52:24.611Z,9.00
2019-04-07T17:57:38.282Z,10.00
2019-04-07T18:03:11.743Z,9.20
2019-04-07T18:08:37.369Z,9.73
2019-04-07T18:14:13.626Z,9.67
2019-04-07T18:19:43.684Z,9.30
2019-04-07T18:25:10.955Z,9.53
2019-04-07T18:30:36.057Z,9.70
2019-04-07T18:36:05.096Z,10.43
2019-04-07T18:41:34.765Z,10.63
2019-04-07T18:46:51.564Z,10.97
2019-04-07T18:52:22.652Z,10.40
2019-04-07T18:57:40.029Z,10.80
2019-04-07T19:02:50.512Z,10.83
2019-04-07T19:08:21.618Z,10.77
2019-04-07T19:13:35.819Z,11.47
2019-04-07T19:18:45.297Z,10.63
2019-04-07T19:24:12.955Z,10.53
2019-04-07T19:29:33.710Z,10.90
2019-04-07T19:34:57.313Z,11.27
2019-04-07T19:40:16.703Z,10.73
2019-04-07T19:45:41.342Z,11.10
2019-04-07T19:51:03.189Z,11.80
2019-04-07T19:56:23.183Z,11.47
2019-04-07T20:01:47.966Z,12.27
2019-04-07T20:07:02.492Z,11.80
2019-04-07T20:12:16.328Z,13.03
2019-04-07T20:17:43.173Z,13.13
2019-04-07T20:23:16.763Z,13.90
2019-04-07T20:28:45.102Z,17.30
2019-04-07T20:34:06.330Z,18.40
2019-04-07T20:39:35.330Z,17.30
2019-04-07T20:45:04.275Z,16.37
2019-04-07T20:50:29.718Z,16.30
2019-04-07T20:55:50.671Z,16.80
2019-04-07T21:01:27.646Z,16.70
2019-04-07T21:06:44.153Z,16.03
2019-04-07T21:12:00.866Z,16.90
2019-04-07T21:17:21.853Z,16.97
2019-04-07T21:22:43.252Z,17.33
2019-04-07T21:27:50.581Z,15.57
2019-04-07T21:33:02.446Z,16.67
2019-04-07T21:38:29.894Z,16.87
2019-04-07T21:43:42.440Z,18.03
2019-04-07T21:49:02.967Z,18.03
2019-04-07T21:54:12.856Z,15.83
2019-04-07T21:59:40.065Z,16.53
2019-04-07T22:05:09.314Z,17.80
2019-04-07T22:10:11.663Z,17.57
2019-04-07T22:15:14.150Z,17.97
2019-04-07T22:20:18.798Z,17.07
2019-04-07T22:25:30.510Z,17.97
2019-04-07T22:30:33.972Z,17.13
2019-04-07T22:35:38.420Z,18.03
2019-04-07T22:40:39.570Z,18.23
2019-04-07T22:45:52.745Z,19.00
2019-04-07T22:50:45.392Z,18.40
2019-04-07T22:55:47.256Z,17.97
2019-04-07T23:00:49.019Z,18.97
2019-04-07T23:05:51.326Z,19.20
2019-04-07T23:10:53.208Z,18.33
2019-04-07T23:16:08.159Z,18.40
2019-04-07T23:20:58.587Z,19.83
2019-04-07T23:26:00.317Z,19.50
2019-04-07T23:31:02.146Z,19.30
2019-04-07T23:36:03.909Z,18.23
2019-04-07T23:41:05.689Z,19.07
2019-04-07T23:46:18.758Z,19.43
2019-04-07T23:51:10.985Z,19.00
2019-04-07T23:56:12.775Z,20.00
